createdAt,value
2022-10-05T00:00:56.836Z,100.00
2022-10-05T00:03:37.786Z,100.00
2022-10-05T00:06:05.777Z,100.00
2022-10-05T00:08:35.290Z,100.00
2022-10-05T00:11:09.093Z,100.00
2022-10-05T00:13:37.209Z,100.00
2022-10-05T00:16:10.911Z,100.00
2022-10-05T00:18:40.031Z,100.00
2022-10-05T00:21:24.690Z,100.00
2022-10-05T00:23:56.244Z,100.00
2022-10-05T00:26:27.315Z,100.00
2022-10-05T00:28:55.356Z,100.00
2022-10-05T00:31:30.163Z,100.00
2022-10-05T00:33:58.260Z,100.00
2022-10-05T00:36:26.335Z,100.00
2022-10-05T00:38:54.467Z,100.00
2022-10-05T00:41:24.163Z,100.00
2022-10-05T00:43:57.640Z,100.00
2022-10-05T00:46:54.943Z,100.00
2022-10-05T00:49:22.612Z,100.00
2022-10-05T00:52:23.752Z,100.00
2022-10-05T00:55:18.386Z,100.00
2022-10-05T00:58:27.867Z,100.00
2022-10-05T01:01:16.679Z,100.00
2022-10-05T01:03:52.992Z,100.00
2022-10-05T01:07:04.762Z,100.00
2022-10-05T01:09:52.861Z,100.00
2022-10-05T01:12:47.487Z,100.00
2022-10-05T01:16:04.291Z,100.00
2022-10-05T01:18:49.291Z,100.00
2022-10-05T01:21:23.683Z,100.00
2022-10-05T01:24:31.902Z,100.00
2022-10-05T01:27:16.029Z,100.00
2022-10-05T01:30:13.542Z,100.00
2022-10-05T01:32:48.392Z,100.00
2022-10-05T01:35:31.115Z,100.00
2022-10-05T01:38:07.822Z,100.00
2022-10-05T01:41:13.266Z,100.00
2022-10-05T01:44:12.040Z,100.00
2022-10-05T01:46:50.488Z,100.00
2022-10-05T01:49:32.321Z,100.00
2022-10-05T01:52:24.565Z,100.00
2022-10-05T01:55:20.694Z,100.00
2022-10-05T01:58:13.739Z,100.00
2022-10-05T02:01:04.446Z,100.00
2022-10-05T02:03:56.848Z,100.00
2022-10-05T02:06:30.093Z,100.00
2022-10-05T02:09:30.338Z,100.00
2022-10-05T02:12:05.418Z,100.00
2022-10-05T02:14:43.365Z,100.00
2022-10-05T02:17:18.226Z,100.00
2022-10-05T02:19:51.493Z,100.00
2022-10-05T02:22:36.973Z,100.00
2022-10-05T02:25:17.548Z,100.00
2022-10-05T02:28:27.084Z,100.00
2022-10-05T02:31:09.836Z,100.00
2022-10-05T02:33:38.094Z,100.00
2022-10-05T02:36:18.364Z,100.00
2022-10-05T02:39:52.464Z,100.00
2022-10-05T02:43:00.086Z,100.00
2022-10-05T02:45:48.086Z,100.00
2022-10-05T02:48:56.235Z,100.00
2022-10-05T02:51:32.538Z,100.00
2022-10-05T02:54:35.066Z,100.00
2022-10-05T02:58:09.800Z,100.00
2022-10-05T03:00:50.116Z,100.00
2022-10-05T03:03:58.373Z,100.00
2022-10-05T03:06:37.724Z,100.00
2022-10-05T03:09:07.986Z,100.00
2022-10-05T03:12:05.126Z,100.00
2022-10-05T03:15:50.788Z,100.00
2022-10-05T03:18:57.169Z,100.00
2022-10-05T03:21:55.154Z,100.00
2022-10-05T03:25:13.546Z,100.00
2022-10-05T03:27:54.452Z,100.00
2022-10-05T03:30:25.784Z,100.00
2022-10-05T03:33:06.623Z,100.00
2022-10-05T03:36:22.092Z,100.00
2022-10-05T03:39:11.176Z,100.00
2022-10-05T03:42:17.337Z,100.00
2022-10-05T03:45:05.805Z,100.00
2022-10-05T03:47:40.509Z,100.00
2022-10-05T03:51:04.191Z,100.00
2022-10-05T03:53:42.995Z,100.00
2022-10-05T03:56:27.637Z,100.00
2022-10-05T03:59:35.235Z,100.00
2022-10-05T04:02:13.226Z,100.00
2022-10-05T04:05:10.256Z,100.00
2022-10-05T04:07:51.194Z,100.00
2022-10-05T04:10:41.793Z,100.00
2022-10-05T04:13:22.355Z,100.00
2022-10-05T04:16:21.509Z,100.00
2022-10-05T04:19:22.151Z,100.00
2022-10-05T04:22:12.570Z,100.00
2022-10-05T04:25:00.826Z,100.00
2022-10-05T04:27:45.477Z,100.00
2022-10-05T04:30:18.026Z,100.00
2022-10-05T04:32:57.721Z,100.00
2022-10-05T04:36:11.647Z,100.00
2022-10-05T04:39:28.409Z,100.00
2022-10-05T04:42:28.291Z,100.00
2022-10-05T04:45:38.030Z,100.00
2022-10-05T04:49:10.875Z,100.00
2022-10-05T04:51:51.019Z,100.00
2022-10-05T04:54:34.074Z,100.00
2022-10-05T04:57:33.113Z,100.00
2022-10-05T05:00:23.930Z,100.00
2022-10-05T05:03:24.271Z,100.00
2022-10-05T05:06:21.815Z,100.00
2022-10-05T05:09:16.945Z,100.00
2022-10-05T05:11:57.027Z,100.00
2022-10-05T05:14:52.745Z,100.00
2022-10-05T05:17:32.624Z,100.00
2022-10-05T05:20:23.421Z,100.00
2022-10-05T05:23:40.916Z,100.00
2022-10-05T05:26:58.673Z,100.00
2022-10-05T05:29:40.133Z,100.00
2022-10-05T05:32:51.030Z,100.00
2022-10-05T05:35:34.911Z,100.00
2022-10-05T05:38:23.945Z,100.00
2022-10-05T05:41:29.309Z,100.00
2022-10-05T05:44:05.997Z,100.00
2022-10-05T05:50:20.269Z,100.00
2022-10-05T05:53:01.534Z,100.00
2022-10-05T05:55:42.656Z,100.00
2022-10-05T05:58:25.778Z,100.00
2022-10-05T06:01:33.669Z,100.00
2022-10-05T06:04:21.558Z,100.00
2022-10-05T06:06:53.418Z,100.00
2022-10-05T06:09:38.314Z,100.00
2022-10-05T06:12:30.238Z,100.00
2022-10-05T06:15:23.690Z,100.00
2022-10-05T06:17:56.592Z,100.00
2022-10-05T06:20:40.705Z,100.00
2022-10-05T06:23:33.193Z,100.00
2022-10-05T06:26:26.194Z,100.00
2022-10-05T06:29:05.853Z,100.00
2022-10-05T06:31:49.977Z,100.00
2022-10-05T06:34:42.827Z,100.00
2022-10-05T06:37:29.012Z,100.00
2022-10-05T06:40:18.647Z,100.00
2022-10-05T06:42:49.311Z,100.00
2022-10-05T06:45:35.279Z,100.00
2022-10-05T06:48:49.353Z,100.00
2022-10-05T06:51:43.585Z,100.00
2022-10-05T06:55:11.866Z,100.00
2022-10-05T06:58:13.290Z,100.00
2022-10-05T07:00:54.600Z,100.00
2022-10-05T07:03:34.128Z,100.00
2022-10-05T07:06:11.982Z,100.00
2022-10-05T07:09:12.087Z,100.00
2022-10-05T07:12:04.442Z,100.00
2022-10-05T07:15:03.179Z,100.00
2022-10-05T07:17:45.595Z,100.00
2022-10-05T07:21:08.350Z,100.00
2022-10-05T07:23:44.580Z,100.00
2022-10-05T07:26:32.489Z,100.00
2022-10-05T07:29:34.078Z,100.00
2022-10-05T07:32:05.160Z,100.00
2022-10-05T07:34:55.856Z,100.00
2022-10-05T07:37:57.427Z,100.00
2022-10-05T07:40:49.123Z,100.00
2022-10-05T07:44:07.746Z,100.00
2022-10-05T07:46:56.856Z,100.00
2022-10-05T07:49:36.949Z,100.00
2022-10-05T07:52:24.930Z,100.00
2022-10-05T07:55:26.367Z,100.00
2022-10-05T07:58:18.805Z,100.00
2022-10-05T08:01:11.189Z,100.00
2022-10-05T08:04:12.503Z,100.00
2022-10-05T08:06:43.584Z,100.00
2022-10-05T08:09:23.260Z,100.00
2022-10-05T08:12:31.877Z,100.00
2022-10-05T08:15:21.985Z,100.00
2022-10-05T08:17:55.986Z,100.00
2022-10-05T08:20:34.886Z,100.00
2022-10-05T08:23:34.137Z,100.00
2022-10-05T08:26:29.213Z,100.00
2022-10-05T08:29:56.167Z,100.00
2022-10-05T08:32:30.832Z,100.00
2022-10-05T08:35:23.313Z,100.00
2022-10-05T08:37:52.650Z,100.00
2022-10-05T08:40:33.633Z,100.00
2022-10-05T08:43:17.454Z,100.00
2022-10-05T08:45:54.296Z,100.00
2022-10-05T08:49:02.379Z,100.00
2022-10-05T08:52:12.227Z,100.00
2022-10-05T08:55:35.086Z,100.00
2022-10-05T08:58:33.334Z,100.00
2022-10-05T09:01:04.146Z,100.00
2022-10-05T09:03:57.071Z,100.00
2022-10-05T09:06:51.349Z,100.00
2022-10-05T09:09:51.149Z,100.00
2022-10-05T09:12:27.913Z,100.00
2022-10-05T09:15:26.312Z,100.00
2022-10-05T09:18:09.627Z,100.00
2022-10-05T09:20:37.390Z,100.00
2022-10-05T09:23:43.015Z,100.00
2022-10-05T09:26:51.676Z,100.00
2022-10-05T09:29:43.769Z,100.00
2022-10-05T09:32:45.948Z,100.00
2022-10-05T09:35:38.519Z,100.00
2022-10-05T09:38:38.692Z,100.00
2022-10-05T09:41:48.263Z,100.00
2022-10-05T09:44:47.254Z,100.00
2022-10-05T09:47:38.222Z,100.00
2022-10-05T09:50:37.986Z,100.00
2022-10-05T09:53:27.297Z,100.00
2022-10-05T09:56:13.250Z,100.00
2022-10-05T09:59:11.887Z,100.00
2022-10-05T10:01:57.851Z,100.00
2022-10-05T10:04:53.640Z,100.00
2022-10-05T10:07:58.535Z,100.00
2022-10-05T10:10:53.568Z,100.00
2022-10-05T10:13:30.469Z,100.00
2022-10-05T10:16:37.995Z,100.00
2022-10-05T10:19:35.870Z,100.00
2022-10-05T10:22:19.913Z,100.00
2022-10-05T10:25:19.638Z,100.00
2022-10-05T10:28:02.719Z,100.00
2022-10-05T10:31:18.050Z,100.00
2022-10-05T10:34:41.490Z,100.00
2022-10-05T10:37:39.547Z,100.00
2022-10-05T10:40:23.391Z,100.00
2022-10-05T10:43:28.476Z,100.00
2022-10-05T10:46:33.842Z,100.00
2022-10-05T10:49:36.891Z,100.00
2022-10-05T10:52:53.879Z,100.00
2022-10-05T10:55:30.946Z,100.00
2022-10-05T10:58:56.269Z,100.00
2022-10-05T11:01:34.624Z,100.00
2022-10-05T11:04:36.568Z,100.00
2022-10-05T11:07:23.142Z,100.00
2022-10-05T11:10:31.341Z,100.00
2022-10-05T11:13:07.983Z,100.00
2022-10-05T11:15:56.932Z,100.00
2022-10-05T11:18:24.767Z,100.00
2022-10-05T11:21:16.657Z,100.00
2022-10-05T11:24:19.652Z,100.00
2022-10-05T11:27:44.204Z,100.00
2022-10-05T11:30:23.054Z,100.00
2022-10-05T11:33:28.305Z,100.00
2022-10-05T11:36:34.264Z,100.00
2022-10-05T11:39:42.511Z,100.00
2022-10-05T11:42:50.593Z,100.00
2022-10-05T11:45:26.121Z,100.00
2022-10-05T11:48:24.579Z,100.00
2022-10-05T11:51:28.466Z,100.00
2022-10-05T11:54:09.486Z,100.00
2022-10-05T11:56:42.026Z,100.00
2022-10-05T11:59:16.211Z,100.00
2022-10-05T12:02:00.153Z,100.00
2022-10-05T12:05:11.382Z,100.00
2022-10-05T12:08:28.933Z,100.00
2022-10-05T12:11:22.861Z,100.00
2022-10-05T12:14:03.725Z,100.00
2022-10-05T12:17:16.970Z,100.00
2022-10-05T12:19:56.601Z,100.00
2022-10-05T12:22:51.533Z,100.00
2022-10-05T12:25:33.506Z,100.00
2022-10-05T12:28:12.434Z,100.00
2022-10-05T12:31:14.628Z,100.00
2022-10-05T12:34:05.402Z,100.00
2022-10-05T12:37:08.263Z,100.00
2022-10-05T12:40:05.419Z,100.00
2022-10-05T12:42:59.983Z,100.00
2022-10-05T12:45:40.166Z,97.38
2022-10-05T12:48:58.147Z,100.00
2022-10-05T12:51:57.995Z,100.00
2022-10-05T12:54:41.563Z,99.95
2022-10-05T12:57:35.093Z,97.75
2022-10-05T13:00:17.738Z,97.24
2022-10-05T13:02:51.344Z,96.64
2022-10-05T13:05:38.016Z,97.94
2022-10-05T13:08:43.383Z,99.01
2022-10-05T13:11:33.507Z,94.65
2022-10-05T13:14:13.486Z,95.38
2022-10-05T13:17:23.733Z,95.59
2022-10-05T13:20:07.766Z,95.98
2022-10-05T13:22:49.253Z,94.31
2022-10-05T13:25:31.407Z,92.18
2022-10-05T13:28:02.156Z,93.82
2022-10-05T13:30:31.180Z,92.88
2022-10-05T13:33:25.694Z,91.34
2022-10-05T13:36:05.542Z,91.27
2022-10-05T13:39:11.611Z,94.74
2022-10-05T13:41:51.938Z,91.07
2022-10-05T13:44:58.822Z,91.63
2022-10-05T13:48:00.921Z,91.79
2022-10-05T13:50:45.866Z,91.88
2022-10-05T13:53:28.150Z,91.88
2022-10-05T13:56:00.418Z,91.33
2022-10-05T13:59:05.261Z,93.62
2022-10-05T14:01:53.650Z,94.06
2022-10-05T14:04:27.515Z,91.02
2022-10-05T14:06:57.453Z,91.98
2022-10-05T14:09:30.632Z,93.44
2022-10-05T14:12:04.435Z,91.99
2022-10-05T14:14:43.953Z,91.88
2022-10-05T14:17:37.441Z,93.31
2022-10-05T14:20:34.311Z,94.74
2022-10-05T14:23:24.701Z,95.88
2022-10-05T14:25:54.230Z,96.50
2022-10-05T14:28:31.463Z,96.83
2022-10-05T14:31:16.559Z,98.15
2022-10-05T14:33:45.011Z,97.19
2022-10-05T14:36:16.785Z,96.49
2022-10-05T14:38:55.223Z,97.13
2022-10-05T14:41:27.570Z,98.70
2022-10-05T14:44:13.690Z,97.01
2022-10-05T14:47:04.725Z,98.11
2022-10-05T14:49:37.077Z,97.64
2022-10-05T14:52:34.814Z,97.74
2022-10-05T14:55:43.787Z,98.24
2022-10-05T14:58:44.425Z,97.80
2022-10-05T15:01:52.528Z,99.20
2022-10-05T15:04:43.218Z,99.20
2022-10-05T15:07:31.109Z,98.81
2022-10-05T15:10:51.333Z,98.17
2022-10-05T15:13:24.276Z,99.68
2022-10-05T15:16:25.440Z,99.22
2022-10-05T15:19:16.749Z,100.00
2022-10-05T15:22:26.309Z,98.72
2022-10-05T15:25:16.138Z,99.71
2022-10-05T15:27:56.518Z,100.00
2022-10-05T15:30:24.630Z,100.00
2022-10-05T15:33:27.769Z,99.96
2022-10-05T15:36:04.686Z,100.00
2022-10-05T15:39:16.457Z,100.00
2022-10-05T15:42:08.127Z,99.36
2022-10-05T15:45:11.626Z,99.59
2022-10-05T15:48:03.724Z,100.00
2022-10-05T15:51:07.136Z,100.00
2022-10-05T15:53:55.357Z,100.00
2022-10-05T15:56:41.070Z,100.00
2022-10-05T15:59:46.126Z,100.00
2022-10-05T16:02:29.163Z,100.00
2022-10-05T16:05:20.065Z,100.00
2022-10-05T16:08:12.412Z,100.00
2022-10-05T16:10:47.510Z,100.00
2022-10-05T16:13:46.831Z,100.00
2022-10-05T16:16:47.717Z,100.00
2022-10-05T16:19:35.768Z,100.00
2022-10-05T16:22:25.182Z,100.00
2022-10-05T16:25:05.074Z,100.00
2022-10-05T16:27:47.983Z,100.00
2022-10-05T16:30:22.635Z,100.00
2022-10-05T16:33:02.508Z,100.00
2022-10-05T16:35:53.647Z,100.00
2022-10-05T16:39:06.731Z,100.00
2022-10-05T16:42:06.428Z,100.00
2022-10-05T16:44:55.580Z,100.00
2022-10-05T16:48:13.342Z,100.00
2022-10-05T16:50:59.011Z,100.00
2022-10-05T16:53:44.511Z,100.00
2022-10-05T16:56:18.425Z,100.00
2022-10-05T16:59:11.460Z,100.00
2022-10-05T17:02:31.625Z,100.00
2022-10-05T17:05:39.982Z,100.00
2022-10-05T17:08:45.710Z,100.00
2022-10-05T17:11:35.423Z,100.00
2022-10-05T17:14:11.520Z,100.00
2022-10-05T17:17:17.970Z,100.00
2022-10-05T17:20:10.096Z,100.00
2022-10-05T17:22:51.595Z,100.00
2022-10-05T17:25:57.360Z,100.00
2022-10-05T17:29:16.677Z,100.00
2022-10-05T17:32:30.664Z,100.00
2022-10-05T17:35:01.767Z,100.00
2022-10-05T17:38:17.239Z,100.00
2022-10-05T17:41:12.025Z,100.00
2022-10-05T17:44:20.535Z,100.00
2022-10-05T17:46:53.239Z,100.00
2022-10-05T17:50:08.609Z,100.00
2022-10-05T17:53:00.013Z,100.00
2022-10-05T17:55:45.307Z,100.00
2022-10-05T17:58:29.493Z,100.00
2022-10-05T18:00:58.555Z,100.00
2022-10-05T18:03:52.864Z,100.00
2022-10-05T18:06:37.987Z,100.00
2022-10-05T18:09:20.593Z,100.00
2022-10-05T18:12:17.047Z,100.00
2022-10-05T18:15:07.036Z,100.00
2022-10-05T18:18:00.909Z,100.00
2022-10-05T18:20:32.605Z,100.00
2022-10-05T18:23:03.619Z,100.00
2022-10-05T18:26:08.194Z,100.00
2022-10-05T18:29:14.063Z,100.00
2022-10-05T18:32:01.159Z,100.00
2022-10-05T18:34:41.816Z,100.00
2022-10-05T18:37:56.176Z,100.00
2022-10-05T18:40:34.566Z,100.00
2022-10-05T18:43:40.803Z,100.00
2022-10-05T18:46:46.563Z,100.00
2022-10-05T18:50:00.572Z,100.00
2022-10-05T18:53:00.740Z,100.00
2022-10-05T18:55:58.887Z,100.00
2022-10-05T18:59:37.020Z,100.00
2022-10-05T19:02:18.279Z,100.00
2022-10-05T19:05:46.518Z,100.00
2022-10-05T19:08:32.998Z,100.00
2022-10-05T19:11:12.417Z,100.00
2022-10-05T19:14:32.147Z,100.00
2022-10-05T19:17:14.961Z,100.00
2022-10-05T19:20:05.955Z,100.00
2022-10-05T19:22:54.197Z,100.00
2022-10-05T19:26:03.438Z,100.00
2022-10-05T19:29:08.500Z,100.00
2022-10-05T19:31:38.943Z,100.00
2022-10-05T19:34:56.230Z,100.00
2022-10-05T19:37:51.815Z,100.00
2022-10-05T19:41:27.949Z,100.00
2022-10-05T19:44:56.830Z,100.00
2022-10-05T19:48:15.337Z,100.00
2022-10-05T19:50:58.592Z,100.00
2022-10-05T19:53:49.909Z,100.00
2022-10-05T19:56:21.710Z,100.00
2022-10-05T19:58:52.003Z,100.00
2022-10-05T20:01:27.552Z,100.00
2022-10-05T20:03:55.510Z,100.00
2022-10-05T20:06:23.614Z,100.00
2022-10-05T20:08:53.763Z,100.00
2022-10-05T20:11:27.391Z,100.00
2022-10-05T20:13:55.312Z,100.00
2022-10-05T20:19:47.105Z,100.00
2022-10-05T20:22:38.076Z,100.00
2022-10-05T20:25:19.384Z,100.00
2022-10-05T20:27:58.067Z,100.00
2022-10-05T20:30:29.057Z,100.00
2022-10-05T20:32:59.617Z,100.00
2022-10-05T20:35:30.625Z,100.00
2022-10-05T20:38:02.021Z,100.00
2022-10-05T20:40:30.653Z,100.00
2022-10-05T20:42:59.038Z,100.00
2022-10-05T20:45:26.965Z,100.00
2022-10-05T20:47:55.029Z,100.00
2022-10-05T20:50:22.857Z,100.00
2022-10-05T20:52:50.793Z,100.00
2022-10-05T20:55:18.570Z,100.00
2022-10-05T20:57:47.385Z,100.00
2022-10-05T21:00:15.339Z,100.00
2022-10-05T21:02:43.178Z,100.00
2022-10-05T21:05:10.984Z,100.00
2022-10-05T21:07:38.906Z,100.00
2022-10-05T21:10:07.194Z,100.00
2022-10-05T21:12:34.959Z,100.00
2022-10-05T21:15:06.207Z,100.00
2022-10-05T21:17:34.693Z,100.00
2022-10-05T21:20:02.530Z,100.00
2022-10-05T21:22:30.357Z,100.00
2022-10-05T21:24:58.474Z,100.00
2022-10-05T21:27:26.286Z,100.00
2022-10-05T21:29:54.169Z,100.00
2022-10-05T21:32:21.932Z,100.00
2022-10-05T21:34:50.139Z,100.00
2022-10-05T21:37:19.841Z,100.00
2022-10-05T21:39:47.578Z,100.00
2022-10-05T21:42:15.399Z,100.00
2022-10-05T21:44:43.178Z,100.00
2022-10-05T21:47:11.006Z,100.00
2022-10-05T21:49:38.822Z,100.00
2022-10-05T21:52:06.651Z,100.00
2022-10-05T21:54:35.117Z,100.00
2022-10-05T21:57:03.361Z,100.00
2022-10-05T21:59:33.327Z,100.00
2022-10-05T22:02:02.389Z,100.00
2022-10-05T22:04:30.117Z,100.00
2022-10-05T22:06:58.084Z,100.00
2022-10-05T22:09:25.941Z,100.00
2022-10-05T22:11:54.897Z,100.00
2022-10-05T22:14:22.776Z,100.00
2022-10-05T22:16:50.601Z,100.00
2022-10-05T22:19:20.112Z,100.00
2022-10-05T22:21:47.874Z,100.00
2022-10-05T22:24:15.676Z,100.00
2022-10-05T22:26:47.376Z,100.00
2022-10-05T22:29:17.002Z,100.00
2022-10-05T22:31:48.662Z,100.00
2022-10-05T22:34:18.430Z,100.00
2022-10-05T22:36:47.555Z,100.00
2022-10-05T22:39:17.070Z,100.00
2022-10-05T22:41:45.122Z,100.00
2022-10-05T22:44:12.936Z,100.00
2022-10-05T22:46:40.860Z,100.00
2022-10-05T22:49:09.307Z,100.00
2022-10-05T22:51:37.092Z,100.00
2022-10-05T22:54:05.305Z,100.00
2022-10-05T22:56:33.394Z,100.00
2022-10-05T22:59:01.376Z,100.00
2022-10-05T23:01:29.231Z,100.00
2022-10-05T23:03:57.381Z,100.00
2022-10-05T23:06:28.253Z,100.00
2022-10-05T23:08:56.680Z,100.00
2022-10-05T23:11:30.202Z,100.00
2022-10-05T23:13:58.758Z,100.00
2022-10-05T23:16:28.816Z,100.00
2022-10-05T23:18:56.897Z,100.00
2022-10-05T23:21:28.874Z,100.00
2022-10-05T23:23:56.718Z,100.00
2022-10-05T23:26:26.520Z,100.00
2022-10-05T23:28:54.389Z,100.00
2022-10-05T23:31:29.301Z,100.00
2022-10-05T23:33:57.188Z,100.00
2022-10-05T23:36:28.410Z,100.00
2022-10-05T23:38:56.159Z,100.00
2022-10-05T23:41:24.965Z,100.00
2022-10-05T23:43:55.209Z,100.00
2022-10-05T23:46:23.319Z,100.00
2022-10-05T23:48:53.144Z,100.00
2022-10-05T23:51:20.967Z,100.00
2022-10-05T23:53:48.682Z,100.00
2022-10-05T23:56:16.496Z,100.00
2022-10-05T23:58:45.022Z,100.00
